Time;durP1;ratioP1;P1;durP2;ratioP2;P2;SDS_P1;SDS_P2;PMS_P1;PMS_P2;Temp;Humidity;BMP_temperature;BMP_pressure;BME280_temperature;BME280_humidity;BME280_pressure;Samples;Min_cycle;Max_cycle;Signal;HPM_P1;HPM_P2
2022/10/31 00:02:04;;;;;;;10.23;5.72;;;15.40;99.90;;;;;;5050864;28;20101;-46
2022/10/31 00:04:29;;;;;;;12.50;6.18;;;15.30;99.90;;;;;;5045614;28;20370;-47
2022/10/31 00:06:55;;;;;;;12.93;6.80;;;15.30;99.90;;;;;;5042909;28;20260;-47
2022/10/31 00:09:20;;;;;;;14.88;6.95;;;15.30;99.90;;;;;;5049797;28;20029;-46
2022/10/31 00:11:46;;;;;;;10.25;5.93;;;15.30;99.90;;;;;;5038831;28;20289;-46
2022/10/31 00:14:11;;;;;;;14.25;6.80;;;15.30;99.90;;;;;;5049776;28;20111;-46
2022/10/31 00:16:37;;;;;;;11.40;6.68;;;15.30;99.90;;;;;;5039485;28;20037;-46
2022/10/31 00:19:05;;;;;;;18.65;6.80;;;15.30;99.90;;;;;;5048629;28;20414;-48
2022/10/31 00:21:32;;;;;;;15.68;6.47;;;15.30;99.90;;;;;;5041104;28;20021;-48
2022/10/31 00:23:58;;;;;;;14.30;6.63;;;15.40;99.90;;;;;;5047687;28;20025;-47
2022/10/31 00:26:24;;;;;;;11.40;6.50;;;15.30;99.90;;;;;;5049434;28;20021;-47
2022/10/31 00:28:50;;;;;;;22.45;6.45;;;15.40;99.90;;;;;;5039523;28;20469;-49
2022/10/31 00:31:16;;;;;;;14.88;6.85;;;15.30;99.90;;;;;;5050054;28;20036;-46
2022/10/31 00:33:42;;;;;;;12.85;6.13;;;15.30;99.90;;;;;;5041161;28;20058;-45
2022/10/31 00:36:14;;;;;;;12.95;7.00;;;15.30;99.90;;;;;;5028800;28;20045;-46
2022/10/31 00:38:40;;;;;;;13.23;6.07;;;15.30;99.90;;;;;;5010772;28;20029;-47
2022/10/31 00:41:06;;;;;;;18.40;6.65;;;15.20;99.90;;;;;;5010953;28;20076;-46
2022/10/31 00:43:31;;;;;;;12.13;6.68;;;15.20;99.90;;;;;;5015593;28;20026;-47
2022/10/31 00:45:56;;;;;;;14.55;6.22;;;15.30;99.90;;;;;;5027008;28;20095;-46
2022/10/31 00:48:22;;;;;;;14.70;6.28;;;15.20;99.90;;;;;;5033193;28;20024;-46
2022/10/31 00:50:48;;;;;;;18.00;6.55;;;15.20;99.90;;;;;;5041989;28;20076;-46
2022/10/31 00:53:13;;;;;;;11.80;6.35;;;15.20;99.90;;;;;;5049863;28;20045;-46
2022/10/31 00:55:38;;;;;;;12.10;6.03;;;15.20;99.90;;;;;;5050183;28;20074;-46
2022/10/31 00:58:04;;;;;;;12.60;6.70;;;15.20;99.90;;;;;;5038991;28;20402;-45
2022/10/31 01:00:29;;;;;;;17.35;6.15;;;15.20;99.90;;;;;;5050112;28;20096;-48
2022/10/31 01:02:55;;;;;;;11.80;7.15;;;15.20;99.90;;;;;;5045982;28;20040;-46
2022/10/31 01:05:20;;;;;;;14.63;7.45;;;15.20;99.90;;;;;;5041335;28;20646;-46
2022/10/31 01:07:46;;;;;;;18.23;6.82;;;15.20;99.90;;;;;;5050100;28;20033;-46
2022/10/31 01:10:11;;;;;;;23.88;7.10;;;15.30;99.90;;;;;;5040880;28;20400;-46
2022/10/31 01:12:42;;;;;;;15.95;6.45;;;15.30;99.90;;;;;;5041285;28;20035;-46
2022/10/31 01:15:08;;;;;;;;;;;15.30;99.90;;;;;;5050313;28;20025;-47
2022/10/31 01:17:33;;;;;;;9.70;6.25;;;15.40;99.90;;;;;;5043802;28;19909;-46
2022/10/31 01:19:59;;;;;;;16.70;7.13;;;15.30;99.90;;;;;;5045983;28;20028;-49
2022/10/31 01:22:24;;;;;;;16.80;7.28;;;15.30;99.90;;;;;;5029604;28;20022;-46
2022/10/31 01:24:50;;;;;;;11.52;6.20;;;15.40;99.90;;;;;;5030218;28;20022;-46
2022/10/31 01:27:15;;;;;;;22.42;7.30;;;15.30;99.90;;;;;;5040288;28;20224;-46
2022/10/31 01:29:41;;;;;;;16.80;6.88;;;15.30;99.90;;;;;;5049778;28;20044;-46
2022/10/31 01:32:06;;;;;;;19.23;6.38;;;15.30;99.90;;;;;;5049370;28;20434;-46
2022/10/31 01:34:31;;;;;;;12.00;6.07;;;15.30;99.90;;;;;;5044467;28;20025;-45
2022/10/31 01:36:57;;;;;;;14.38;7.32;;;15.30;99.90;;;;;;5041326;28;20039;-46
2022/10/31 01:39:22;;;;;;;14.05;7.63;;;15.20;99.90;;;;;;5031516;28;20021;-46
2022/10/31 01:41:51;;;;;;;14.98;7.13;;;15.30;99.90;;;;;;5045200;28;20017;-46
2022/10/31 01:44:16;;;;;;;19.02;7.38;;;15.30;99.90;;;;;;5045612;28;20029;-46
2022/10/31 01:46:49;;;;;;;11.85;6.60;;;15.20;99.90;;;;;;5029462;28;20505;-46
2022/10/31 01:49:20;;;;;;;12.75;6.60;;;15.20;99.90;;;;;;5036931;28;20116;-45
2022/10/31 01:51:52;;;;;;;20.30;6.97;;;15.20;99.90;;;;;;5043979;28;20025;-46
2022/10/31 01:54:22;;;;;;;15.88;7.47;;;15.20;99.90;;;;;;5049184;28;20021;-45
2022/10/31 01:56:51;;;;;;;17.38;7.53;;;15.20;99.90;;;;;;5040432;28;20088;-46
2022/10/31 01:59:19;;;;;;;17.73;7.03;;;15.20;99.90;;;;;;5048552;28;20067;-45
2022/10/31 02:01:45;;;;;;;12.82;6.70;;;15.20;99.90;;;;;;5041207;28;20029;-47
2022/10/31 02:04:11;;;;;;;17.75;7.95;;;15.20;99.90;;;;;;5038978;28;20026;-46
2022/10/31 02:06:42;;;;;;;11.50;6.70;;;15.20;99.90;;;;;;5033744;28;20033;-46
2022/10/31 02:09:08;;;;;;;18.27;7.32;;;15.10;99.90;;;;;;5041016;28;20029;-46
2022/10/31 02:11:35;;;;;;;17.67;7.32;;;15.10;99.90;;;;;;5048075;28;20025;-46
2022/10/31 02:14:01;;;;;;;17.77;8.07;;;15.10;99.90;;;;;;5037254;28;20025;-46
2022/10/31 02:16:27;;;;;;;20.50;8.65;;;15.10;99.90;;;;;;5048672;28;20029;-46
2022/10/31 02:18:53;;;;;;;14.20;7.85;;;15.10;99.90;;;;;;5031321;28;20508;-45
2022/10/31 02:21:25;;;;;;;17.67;8.10;;;15.00;99.90;;;;;;5049065;28;20032;-46
2022/10/31 02:24:40;;;;;;;21.95;9.20;;;15.00;99.90;;;;;;5049003;28;20029;-45
2022/10/31 02:27:18;;;;;;;19.60;8.30;;;14.90;99.90;;;;;;5039439;28;20029;-46
2022/10/31 02:29:52;;;;;;;21.13;10.45;;;14.90;99.90;;;;;;5040462;28;20029;-46
2022/10/31 02:32:33;;;;;;;21.30;10.18;;;14.90;99.90;;;;;;5048501;28;20028;-46
2022/10/31 02:35:26;;;;;;;23.17;10.00;;;14.80;99.90;;;;;;5028441;28;20037;-46
2022/10/31 02:38:02;;;;;;;23.67;10.07;;;14.80;99.90;;;;;;5048622;28;20066;-47
2022/10/31 02:40:35;;;;;;;29.20;10.43;;;14.70;99.90;;;;;;5041186;28;20339;-47
2022/10/31 02:43:06;;;;;;;22.45;11.70;;;14.70;99.90;;;;;;5039520;28;20025;-47
2022/10/31 02:45:50;;;;;;;25.35;11.30;;;14.70;99.90;;;;;;5043884;28;20371;-46
2022/10/31 02:48:23;;;;;;;24.48;12.77;;;14.60;99.90;;;;;;5039829;28;20104;-46
2022/10/31 02:50:55;;;;;;;20.48;10.55;;;14.60;99.90;;;;;;5044353;28;20013;-46
2022/10/31 02:53:21;;;;;;;26.73;12.18;;;14.60;99.90;;;;;;5040079;28;20107;-46
2022/10/31 02:55:51;;;;;;;27.65;11.10;;;14.50;99.90;;;;;;5048347;28;20068;-46
2022/10/31 02:58:22;;;;;;;23.15;12.18;;;14.50;99.90;;;;;;5043122;28;20120;-46
2022/10/31 03:01:22;;;;;;;20.95;11.48;;;14.40;99.90;;;;;;5043776;28;20052;-47
2022/10/31 03:04:05;;;;;;;24.70;11.68;;;14.30;99.90;;;;;;5039806;28;20072;-45
2022/10/31 03:07:12;;;;;;;26.77;12.75;;;14.30;99.90;;;;;;5007426;28;20022;-47
2022/10/31 03:09:52;;;;;;;28.33;12.98;;;14.30;99.90;;;;;;5030571;28;20025;-46
2022/10/31 03:12:29;;;;;;;26.20;12.75;;;14.30;99.90;;;;;;5047546;28;20068;-49
2022/10/31 03:15:38;;;;;;;23.25;12.93;;;14.30;99.90;;;;;;5042577;28;20112;-46
2022/10/31 03:18:32;;;;;;;28.25;14.82;;;14.30;99.90;;;;;;5013326;28;20688;-45
2022/10/31 03:21:10;;;;;;;31.60;15.13;;;14.40;99.90;;;;;;5036047;28;20036;-45
2022/10/31 03:23:36;;;;;;;27.70;15.15;;;14.40;99.90;;;;;;5050141;28;20061;-45
2022/10/31 03:26:04;;;;;;;28.52;15.10;;;14.40;99.90;;;;;;5049236;28;20577;-46
2022/10/31 03:28:36;;;;;;;34.05;15.95;;;14.50;99.90;;;;;;5043660;28;20512;-45
2022/10/31 03:31:04;;;;;;;29.35;15.25;;;14.50;99.90;;;;;;5052317;28;20065;-46
2022/10/31 03:33:34;;;;;;;32.92;16.45;;;14.50;99.90;;;;;;5043868;28;20049;-45
2022/10/31 03:36:03;;;;;;;30.13;17.67;;;14.60;99.90;;;;;;5043742;28;20498;-45
2022/10/31 03:38:31;;;;;;;36.15;19.55;;;14.50;99.90;;;;;;5051674;28;20486;-45
2022/10/31 03:41:00;;;;;;;36.05;19.02;;;14.60;99.90;;;;;;5051967;28;20029;-45
2022/10/31 03:43:29;;;;;;;41.75;19.00;;;14.50;99.90;;;;;;5051177;28;20052;-45
2022/10/31 03:45:56;;;;;;;37.93;20.33;;;14.50;99.90;;;;;;5051303;28;20329;-47
2022/10/31 03:48:22;;;;;;;46.10;23.17;;;14.50;99.90;;;;;;5051494;28;20458;-45
2022/10/31 03:51:06;;;;;;;45.45;24.20;;;14.50;99.90;;;;;;5039702;28;20539;-46
2022/10/31 03:53:33;;;;;;;62.33;29.60;;;14.40;99.90;;;;;;5009685;28;20030;-48
2022/10/31 03:56:18;;;;;;;53.25;28.30;;;14.40;99.90;;;;;;4993962;28;20060;-46
2022/10/31 03:59:05;;;;;;;60.90;31.08;;;14.30;99.90;;;;;;5034525;28;20030;-46
2022/10/31 04:01:34;;;;;;;67.13;31.10;;;14.30;99.90;;;;;;5011135;28;20061;-46
2022/10/31 04:04:01;;;;;;;72.95;36.17;;;14.30;99.90;;;;;;5020258;28;20044;-46
2022/10/31 04:06:28;;;;;;;70.25;31.95;;;14.30;99.90;;;;;;5025205;28;20020;-46
2022/10/31 04:09:03;;;;;;;88.95;41.28;;;14.30;99.90;;;;;;5045063;28;20021;-46
2022/10/31 04:11:33;;;;;;;87.13;41.65;;;14.30;99.90;;;;;;5031782;28;20432;-48
2022/10/31 04:14:01;;;;;;;96.20;46.10;;;14.30;99.90;;;;;;5030890;28;20037;-45
2022/10/31 04:16:27;;;;;;;92.55;42.50;;;14.40;99.90;;;;;;5031113;28;20029;-46
2022/10/31 04:18:52;;;;;;;87.95;42.90;;;14.40;99.90;;;;;;5030565;28;20029;-46
2022/10/31 04:21:18;;;;;;;84.15;41.38;;;14.40;99.90;;;;;;5038344;28;20399;-46
2022/10/31 04:23:43;;;;;;;86.60;41.75;;;14.40;99.90;;;;;;5030706;28;20496;-46
2022/10/31 04:26:12;;;;;;;97.65;43.55;;;14.40;99.90;;;;;;5030772;28;20037;-46
2022/10/31 04:28:38;;;;;;;91.80;44.45;;;14.40;99.90;;;;;;5030650;28;20112;-46
2022/10/31 04:31:03;;;;;;;90.15;41.92;;;14.40;99.90;;;;;;5030801;28;20160;-46
2022/10/31 04:33:30;;;;;;;98.25;43.70;;;14.40;99.90;;;;;;5038053;28;20026;-46
2022/10/31 04:35:55;;;;;;;84.38;41.47;;;14.40;99.90;;;;;;5046396;28;20036;-47
2022/10/31 04:38:21;;;;;;;92.72;45.30;;;14.40;99.90;;;;;;5043724;28;20017;-46
2022/10/31 04:40:46;;;;;;;107.28;46.75;;;14.50;99.90;;;;;;5045844;28;20028;-46
2022/10/31 04:43:12;;;;;;;106.30;48.08;;;14.50;99.90;;;;;;5050018;28;20070;-46
2022/10/31 04:45:37;;;;;;;102.50;45.90;;;14.40;99.90;;;;;;5050592;28;20025;-46
2022/10/31 04:48:03;;;;;;;103.57;43.13;;;14.50;99.90;;;;;;5050448;28;20581;-47
2022/10/31 04:50:28;;;;;;;81.22;41.13;;;14.50;99.90;;;;;;5050539;28;20025;-47
2022/10/31 04:52:54;;;;;;;120.70;47.45;;;14.40;99.90;;;;;;5042383;28;20079;-46
2022/10/31 04:55:19;;;;;;;98.43;43.22;;;14.50;99.90;;;;;;5032729;28;20114;-47
2022/10/31 04:57:47;;;;;;;95.13;42.83;;;14.50;99.90;;;;;;5016066;28;20391;-46
2022/10/31 05:00:15;;;;;;;85.07;39.47;;;14.50;99.90;;;;;;5027155;28;20069;-47
2022/10/31 05:02:51;;;;;;;92.63;41.83;;;14.50;99.90;;;;;;5025988;28;20076;-49
2022/10/31 05:05:19;;;;;;;85.60;40.05;;;14.50;99.90;;;;;;5029141;28;20166;-48
2022/10/31 05:07:46;;;;;;;93.80;44.08;;;14.50;99.90;;;;;;5028320;28;20105;-47
2022/10/31 05:10:14;;;;;;;91.45;42.53;;;14.50;99.90;;;;;;5023558;28;20636;-47
2022/10/31 05:12:48;;;;;;;96.97;43.15;;;14.50;99.90;;;;;;5031032;28;20378;-48
2022/10/31 05:15:14;;;;;;;93.07;42.83;;;14.60;99.90;;;;;;5029226;28;20398;-48
2022/10/31 05:17:39;;;;;;;92.28;42.20;;;14.60;99.90;;;;;;5037858;28;20378;-47
2022/10/31 05:20:05;;;;;;;94.35;42.92;;;14.50;99.90;;;;;;5047245;28;20029;-46
2022/10/31 05:22:30;;;;;;;102.63;45.20;;;14.50;99.90;;;;;;5042480;28;20390;-47
2022/10/31 05:24:56;;;;;;;123.25;46.90;;;14.50;99.90;;;;;;5040702;28;20029;-47
2022/10/31 05:27:21;;;;;;;105.05;45.63;;;14.50;99.90;;;;;;5026384;28;20030;-48
2022/10/31 05:29:47;;;;;;;106.07;47.50;;;14.50;99.90;;;;;;5009843;28;20106;-46
2022/10/31 05:32:12;;;;;;;88.57;41.33;;;14.50;99.90;;;;;;5009717;28;20033;-47
2022/10/31 05:34:38;;;;;;;97.55;44.30;;;14.50;99.90;;;;;;5029402;28;20400;-46
2022/10/31 05:37:03;;;;;;;97.18;42.88;;;14.60;99.90;;;;;;5018134;28;20065;-48
2022/10/31 05:39:29;;;;;;;110.20;46.85;;;14.60;99.90;;;;;;5009374;28;20360;-48
2022/10/31 05:41:54;;;;;;;103.28;43.75;;;14.50;99.90;;;;;;5008797;28;20038;-47
2022/10/31 05:44:20;;;;;;;85.72;39.67;;;14.40;99.90;;;;;;5009594;28;20168;-46
2022/10/31 05:46:46;;;;;;;88.30;41.30;;;14.50;99.90;;;;;;5007309;28;20029;-48
2022/10/31 05:49:12;;;;;;;95.97;43.03;;;14.40;99.90;;;;;;5008021;28;20511;-47
2022/10/31 05:51:37;;;;;;;84.20;39.97;;;14.40;99.90;;;;;;5007670;28;20239;-46
2022/10/31 05:54:03;;;;;;;87.43;37.75;;;14.40;99.90;;;;;;5031537;28;20087;-47
2022/10/31 05:56:29;;;;;;;87.63;39.22;;;14.30;99.90;;;;;;5040312;28;20115;-47
2022/10/31 05:58:54;;;;;;;84.45;38.40;;;14.30;99.90;;;;;;5042050;28;20036;-46
2022/10/31 06:01:19;;;;;;;68.80;34.40;;;14.30;99.90;;;;;;5039773;28;20493;-47
2022/10/31 06:03:45;;;;;;;63.55;31.83;;;14.20;99.90;;;;;;5045873;28;20038;-45
2022/10/31 06:06:10;;;;;;;62.78;31.85;;;14.20;99.90;;;;;;5038962;28;20029;-46
2022/10/31 06:08:36;;;;;;;56.55;30.25;;;14.20;99.90;;;;;;5048914;28;20029;-47
2022/10/31 06:11:02;;;;;;;69.00;33.33;;;14.10;99.90;;;;;;5049414;28;20025;-46
2022/10/31 06:13:27;;;;;;;65.47;33.05;;;14.10;99.90;;;;;;5043482;28;20029;-48
2022/10/31 06:15:53;;;;;;;63.22;29.77;;;14.10;99.90;;;;;;5036771;28;20253;-46
2022/10/31 06:18:18;;;;;;;60.67;30.20;;;14.00;99.90;;;;;;5039847;28;20026;-47
2022/10/31 06:20:44;;;;;;;68.90;33.40;;;13.90;99.90;;;;;;5009242;28;20253;-49
2022/10/31 06:23:09;;;;;;;70.22;35.47;;;13.90;99.90;;;;;;5008614;28;20049;-47
2022/10/31 06:25:35;;;;;;;71.68;36.25;;;13.90;99.90;;;;;;5008878;28;20390;-47
2022/10/31 06:28:00;;;;;;;91.97;42.47;;;13.90;99.90;;;;;;5009063;28;20022;-46
2022/10/31 06:30:26;;;;;;;67.85;34.55;;;13.90;99.90;;;;;;5017302;28;20083;-47
2022/10/31 06:32:51;;;;;;;68.65;34.33;;;13.90;99.90;;;;;;5039640;28;20106;-46
2022/10/31 06:35:17;;;;;;;73.97;35.40;;;13.90;99.90;;;;;;5049232;28;20027;-49
2022/10/31 06:37:43;;;;;;;64.18;33.15;;;13.90;99.90;;;;;;5049590;28;20025;-47
2022/10/31 06:40:09;;;;;;;77.97;38.38;;;13.90;99.90;;;;;;5050014;28;20040;-49
2022/10/31 06:42:34;;;;;;;69.20;35.40;;;13.80;99.90;;;;;;5049559;28;20598;-47
2022/10/31 06:45:00;;;;;;;73.63;39.38;;;13.80;99.90;;;;;;5049815;28;20116;-47
2022/10/31 06:47:25;;;;;;;68.93;34.05;;;13.90;99.90;;;;;;5018774;28;20637;-49
2022/10/31 06:49:50;;;;;;;66.32;33.00;;;13.90;99.90;;;;;;5021610;28;20076;-46
2022/10/31 06:52:16;;;;;;;72.22;33.85;;;13.90;99.90;;;;;;5019141;28;20017;-47
2022/10/31 06:54:41;;;;;;;57.38;31.35;;;14.00;99.90;;;;;;5017719;28;20018;-48
2022/10/31 06:57:07;;;;;;;60.00;33.55;;;14.00;99.90;;;;;;5035996;28;20542;-49
2022/10/31 06:59:32;;;;;;;69.65;36.53;;;14.00;99.90;;;;;;5022283;28;20036;-47
2022/10/31 07:01:58;;;;;;;75.25;39.67;;;14.10;99.90;;;;;;5028407;28;20025;-46
2022/10/31 07:04:24;;;;;;;69.82;36.33;;;14.10;99.90;;;;;;5030801;28;20025;-47
2022/10/31 07:06:52;;;;;;;74.18;39.40;;;14.10;99.90;;;;;;5023202;28;20101;-46
2022/10/31 07:09:17;;;;;;;85.82;42.20;;;14.20;99.90;;;;;;5027432;28;20022;-47
2022/10/31 07:11:42;;;;;;;73.18;38.60;;;14.20;99.90;;;;;;5026428;28;20083;-47
2022/10/31 07:14:08;;;;;;;57.25;32.45;;;14.30;99.90;;;;;;5015365;28;20041;-46
2022/10/31 07:16:33;;;;;;;58.95;33.80;;;14.30;99.90;;;;;;5013541;28;20391;-47
2022/10/31 07:18:59;;;;;;;58.85;34.08;;;14.40;99.90;;;;;;5032763;28;20027;-48
2022/10/31 07:21:25;;;;;;;74.43;40.08;;;14.40;99.90;;;;;;5043610;28;20052;-46
2022/10/31 07:23:51;;;;;;;75.60;40.63;;;14.50;99.90;;;;;;5036899;28;20021;-46
2022/10/31 07:26:16;;;;;;;73.13;38.28;;;14.50;99.90;;;;;;5034918;28;20052;-45
2022/10/31 07:28:42;;;;;;;61.50;35.97;;;14.50;99.90;;;;;;5044841;28;20494;-45
2022/10/31 07:31:07;;;;;;;55.92;31.38;;;14.50;99.90;;;;;;5053381;28;20036;-45
2022/10/31 07:33:33;;;;;;;51.70;31.73;;;14.60;99.90;;;;;;5050631;28;20021;-45
2022/10/31 07:35:59;;;;;;;51.35;30.45;;;14.70;99.90;;;;;;5023362;28;20144;-47
2022/10/31 07:38:24;;;;;;;67.35;35.78;;;14.80;99.90;;;;;;5052689;28;20021;-49
2022/10/31 07:40:52;;;;;;;56.58;32.25;;;14.80;99.90;;;;;;5052676;28;20021;-49
2022/10/31 07:43:18;;;;;;;72.00;39.95;;;14.80;99.90;;;;;;5051924;28;20389;-47
2022/10/31 07:45:43;;;;;;;52.58;30.83;;;14.80;99.90;;;;;;5052469;28;20025;-48
2022/10/31 07:48:09;;;;;;;65.82;37.00;;;14.80;99.90;;;;;;5052358;28;20033;-45
2022/10/31 07:50:35;;;;;;;68.60;37.67;;;14.90;99.90;;;;;;5052232;28;20032;-48
2022/10/31 07:53:06;;;;;;;59.33;33.38;;;15.00;99.90;;;;;;5033928;28;20462;-47
2022/10/31 07:55:32;;;;;;;66.90;36.17;;;15.00;99.90;;;;;;5052048;28;20029;-45
2022/10/31 07:58:00;;;;;;;57.40;32.65;;;15.00;99.90;;;;;;5052079;28;20044;-45
2022/10/31 08:00:26;;;;;;;58.75;34.08;;;15.20;99.90;;;;;;5018638;28;20116;-44
2022/10/31 08:02:59;;;;;;;60.05;35.50;;;15.30;99.90;;;;;;5011962;28;20160;-48
2022/10/31 08:05:25;;;;;;;60.13;35.60;;;15.40;99.90;;;;;;5012752;28;20033;-44
2022/10/31 08:07:50;;;;;;;63.03;34.70;;;15.60;99.90;;;;;;5012914;28;20092;-46
2022/10/31 08:10:16;;;;;;;64.78;35.72;;;15.60;99.90;;;;;;5011842;28;20028;-45
2022/10/31 08:12:41;;;;;;;51.45;30.48;;;15.60;99.90;;;;;;5011515;28;20026;-50
2022/10/31 08:15:07;;;;;;;62.58;31.42;;;15.60;99.90;;;;;;5035878;28;20032;-45
2022/10/31 08:17:35;;;;;;;49.92;30.50;;;15.70;99.90;;;;;;5040835;28;20045;-47
2022/10/31 08:20:01;;;;;;;48.67;30.70;;;15.70;99.90;;;;;;5037162;28;20052;-45
2022/10/31 08:22:26;;;;;;;55.53;30.92;;;15.80;99.90;;;;;;5043061;28;20122;-46
2022/10/31 08:24:52;;;;;;;59.03;34.00;;;15.80;99.90;;;;;;5044911;28;20035;-45
2022/10/31 08:27:17;;;;;;;53.20;31.80;;;15.80;99.90;;;;;;5023351;28;20478;-45
2022/10/31 08:29:43;;;;;;;48.30;28.45;;;15.80;99.90;;;;;;5046147;28;20070;-46
2022/10/31 08:32:08;;;;;;;58.42;32.65;;;15.90;99.90;;;;;;5030996;28;20025;-46
2022/10/31 08:34:34;;;;;;;58.58;31.33;;;15.90;99.90;;;;;;5034720;28;20393;-45
2022/10/31 08:36:59;;;;;;;59.08;34.38;;;15.80;99.90;;;;;;5042446;28;20189;-46
2022/10/31 08:39:24;;;;;;;47.05;28.08;;;15.80;99.90;;;;;;5046102;28;20021;-45
2022/10/31 08:41:50;;;;;;;53.35;29.83;;;15.80;99.90;;;;;;5041931;28;20581;-46
2022/10/31 08:44:16;;;;;;;51.47;29.33;;;15.80;99.90;;;;;;5048033;28;20040;-47
2022/10/31 08:46:41;;;;;;;52.08;31.23;;;15.80;99.90;;;;;;5041446;28;20363;-46
2022/10/31 08:49:07;;;;;;;50.47;28.05;;;15.70;99.90;;;;;;5047755;28;20029;-46
2022/10/31 08:51:32;;;;;;;54.05;30.25;;;15.70;99.90;;;;;;5036448;28;20034;-49
2022/10/31 08:53:58;;;;;;;56.97;31.20;;;15.80;99.90;;;;;;5029751;28;20044;-46
2022/10/31 08:56:23;;;;;;;45.35;27.67;;;15.80;99.90;;;;;;5037295;28;20029;-46
2022/10/31 08:58:49;;;;;;;59.20;33.08;;;15.90;99.90;;;;;;5044473;28;20036;-46
2022/10/31 09:01:14;;;;;;;48.80;27.88;;;16.00;99.90;;;;;;5040189;28;20024;-46
2022/10/31 09:03:40;;;;;;;47.28;28.25;;;16.00;99.90;;;;;;5043085;28;20029;-46
2022/10/31 09:06:08;;;;;;;54.17;28.15;;;16.30;99.90;;;;;;5041440;28;20033;-47
2022/10/31 09:08:34;;;;;;;55.95;28.52;;;16.40;99.90;;;;;;5025741;28;20020;-45
2022/10/31 09:11:00;;;;;;;46.55;26.05;;;16.40;99.90;;;;;;5041449;28;20017;-46
2022/10/31 09:13:26;;;;;;;43.10;27.20;;;16.30;99.90;;;;;;5041969;28;20039;-46
2022/10/31 09:15:51;;;;;;;49.15;26.45;;;16.30;99.90;;;;;;5035820;28;20048;-47
2022/10/31 09:18:19;;;;;;;47.13;25.30;;;16.20;99.90;;;;;;5036920;28;20037;-47
2022/10/31 09:20:47;;;;;;;51.42;27.02;;;16.20;99.90;;;;;;5035307;28;20107;-46
2022/10/31 09:23:14;;;;;;;46.65;27.52;;;16.40;99.90;;;;;;5039522;28;20260;-47
2022/10/31 09:25:40;;;;;;;53.05;29.23;;;16.60;99.90;;;;;;5045020;28;20096;-48
2022/10/31 09:28:08;;;;;;;43.30;26.77;;;16.90;99.90;;;;;;5040007;28;20037;-45
2022/10/31 09:30:35;;;;;;;50.10;27.50;;;17.20;99.90;;;;;;5033029;28;20428;-46
2022/10/31 09:33:03;;;;;;;42.03;25.23;;;17.50;99.90;;;;;;5040587;28;20078;-45
2022/10/31 09:35:29;;;;;;;38.38;23.33;;;18.00;99.90;;;;;;5046304;28;20028;-45
2022/10/31 09:38:02;;;;;;;36.67;23.88;;;18.70;99.90;;;;;;5032766;28;20034;-45
2022/10/31 09:40:39;;;;;;;37.65;24.13;;;19.10;99.90;;;;;;5026895;28;20517;-45
2022/10/31 09:43:30;;;;;;;38.78;23.15;;;19.80;99.90;;;;;;5034483;28;20037;-46
2022/10/31 09:46:04;;;;;;;33.78;21.02;;;20.30;99.90;;;;;;5043234;28;20014;-46
2022/10/31 09:48:44;;;;;;;38.50;21.40;;;20.40;99.90;;;;;;5015191;28;20021;-46
2022/10/31 09:51:34;;;;;;;32.92;21.30;;;21.00;99.90;;;;;;5015650;28;20014;-46
2022/10/31 09:54:19;;;;;;;35.42;20.50;;;21.60;99.90;;;;;;5040202;28;20029;-46
2022/10/31 09:56:44;;;;;;;35.13;21.23;;;22.20;99.90;;;;;;5045605;28;20051;-46
2022/10/31 09:59:37;;;;;;;31.42;20.00;;;23.00;99.90;;;;;;5040887;28;20545;-46
2022/10/31 10:02:32;;;;;;;31.30;20.33;;;23.50;99.00;;;;;;5037607;28;20030;-46
2022/10/31 10:05:00;;;;;;;29.33;18.55;;;24.00;98.00;;;;;;5019615;28;20026;-46
2022/10/31 10:07:53;;;;;;;26.48;18.02;;;24.70;96.50;;;;;;5031070;28;20060;-46
2022/10/31 10:10:49;;;;;;;27.95;18.05;;;25.10;95.50;;;;;;5040409;28;20021;-47
2022/10/31 10:13:39;;;;;;;28.35;17.30;;;25.60;94.20;;;;;;5041598;28;20036;-45
2022/10/31 10:16:23;;;;;;;28.88;19.67;;;25.80;93.00;;;;;;5031157;28;20025;-46
2022/10/31 10:19:43;;;;;;;21.08;16.55;;;25.90;91.80;;;;;;5043564;28;20096;-46
2022/10/31 10:22:27;;;;;;;20.98;13.95;;;26.10;91.40;;;;;;4986845;28;20018;-46
2022/10/31 10:25:01;;;;;;;27.52;17.38;;;26.00;92.10;;;;;;5036935;28;20033;-46
2022/10/31 10:27:37;;;;;;;21.98;14.77;;;25.60;90.80;;;;;;5046152;28;20029;-46
2022/10/31 10:30:16;;;;;;;24.80;15.48;;;25.70;90.90;;;;;;5040603;28;20055;-46
2022/10/31 10:32:46;;;;;;;26.33;15.45;;;25.80;90.30;;;;;;5040780;28;20317;-47
2022/10/31 10:35:47;;;;;;;27.15;16.30;;;26.10;90.60;;;;;;5038672;28;20483;-46
2022/10/31 10:38:24;;;;;;;22.95;15.38;;;26.20;89.70;;;;;;4999030;28;20120;-46
2022/10/31 10:40:52;;;;;;;21.15;14.77;;;26.30;90.50;;;;;;5021659;28;20087;-46
2022/10/31 10:43:27;;;;;;;27.23;17.25;;;26.40;88.80;;;;;;5042042;28;20488;-47
2022/10/31 10:49:09;;;;;;;29.45;18.40;;;26.50;88.40;;;;;;5041996;28;20191;-46
2022/10/31 10:52:15;;;;;;;25.38;15.15;;;26.30;88.70;;;;;;5041125;28;20297;-47
2022/10/31 10:54:49;;;;;;;27.98;15.07;;;26.30;89.00;;;;;;5032627;28;20024;-46
2022/10/31 10:57:54;;;;;;;21.48;14.95;;;26.20;88.30;;;;;;5046440;28;20033;-46
2022/10/31 11:00:24;;;;;;;19.95;15.05;;;26.40;88.70;;;;;;5029808;28;20113;-46
2022/10/31 11:02:50;;;;;;;;;;;26.70;86.70;;;;;;5028932;28;20017;-46
2022/10/31 11:05:40;;;;;;;18.85;11.63;;;26.60;85.70;;;;;;5027082;28;19971;-46
2022/10/31 11:08:06;;;;;;;23.83;14.48;;;27.00;85.20;;;;;;5028829;28;20431;-47
2022/10/31 11:10:33;;;;;;;24.20;15.52;;;26.70;84.70;;;;;;5028467;28;20036;-46
2022/10/31 11:13:18;;;;;;;23.73;14.50;;;26.80;84.20;;;;;;5028116;28;20053;-46
2022/10/31 11:16:06;;;;;;;24.83;14.80;;;27.10;83.20;;;;;;5028644;28;20021;-46
2022/10/31 11:18:36;;;;;;;19.85;13.98;;;27.60;81.80;;;;;;5028188;28;20409;-47
2022/10/31 11:21:04;;;;;;;17.25;12.13;;;27.00;83.30;;;;;;5028218;28;20121;-46
2022/10/31 11:23:30;;;;;;;22.98;13.25;;;26.90;82.90;;;;;;5028414;28;20040;-46
2022/10/31 11:26:01;;;;;;;20.58;11.75;;;26.70;84.50;;;;;;5028289;28;20026;-46
2022/10/31 11:28:34;;;;;;;17.30;10.60;;;26.80;82.70;;;;;;5010470;28;20030;-46
2022/10/31 11:31:13;;;;;;;17.77;10.68;;;26.80;83.00;;;;;;5010442;28;20017;-47
2022/10/31 11:33:49;;;;;;;18.63;12.10;;;26.70;83.40;;;;;;5028013;28;20022;-47
2022/10/31 11:36:21;;;;;;;19.92;11.00;;;26.50;83.10;;;;;;5028039;28;20395;-46
2022/10/31 11:38:47;;;;;;;18.30;11.23;;;26.60;84.00;;;;;;5028426;28;20056;-46
2022/10/31 11:41:19;;;;;;;15.48;9.63;;;26.60;82.90;;;;;;5028147;28;20053;-47
2022/10/31 11:43:58;;;;;;;16.10;9.95;;;26.90;81.90;;;;;;5024636;28;20025;-48
2022/10/31 11:46:39;;;;;;;17.30;10.18;;;26.60;81.70;;;;;;5019011;28;20029;-46
2022/10/31 11:49:06;;;;;;;16.38;9.57;;;27.00;81.10;;;;;;5022511;28;20601;-45
2022/10/31 11:51:34;;;;;;;13.45;8.75;;;26.60;82.30;;;;;;5011791;28;20061;-46
2022/10/31 11:54:02;;;;;;;12.30;9.32;;;26.30;82.30;;;;;;5023186;28;20096;-47
2022/10/31 11:56:37;;;;;;;15.85;8.60;;;26.20;82.50;;;;;;5020530;28;20041;-48
2022/10/31 11:59:05;;;;;;;15.15;8.85;;;26.00;83.60;;;;;;5020052;28;20156;-46
2022/10/31 12:01:32;;;;;;;14.90;8.32;;;25.60;84.10;;;;;;5021714;28;20030;-47
2022/10/31 12:04:07;;;;;;;19.88;10.05;;;25.80;83.80;;;;;;5014259;28;20486;-46
2022/10/31 12:06:38;;;;;;;17.20;8.60;;;25.70;85.20;;;;;;5011906;28;20428;-47
2022/10/31 12:09:23;;;;;;;14.02;8.00;;;25.40;85.50;;;;;;5011748;28;20018;-47
2022/10/31 12:12:07;;;;;;;16.67;10.38;;;25.10;84.60;;;;;;5011294;28;20018;-47
2022/10/31 12:14:58;;;;;;;16.67;9.00;;;24.70;86.20;;;;;;5011622;28;20080;-47
2022/10/31 12:17:36;;;;;;;20.08;10.13;;;24.50;87.40;;;;;;5011256;28;20022;-46
2022/10/31 12:20:37;;;;;;;18.33;9.20;;;24.20;89.80;;;;;;5011401;28;20052;-48
2022/10/31 12:23:05;;;;;;;14.80;9.10;;;23.80;87.80;;;;;;4993212;28;20049;-46
2022/10/31 12:25:54;;;;;;;16.80;10.07;;;23.50;90.50;;;;;;5011039;28;20026;-46
2022/10/31 12:28:49;;;;;;;19.45;10.68;;;23.30;91.30;;;;;;5023436;28;20016;-46
2022/10/31 12:31:52;;;;;;;21.33;11.00;;;23.10;90.80;;;;;;5042235;28;20339;-46
2022/10/31 12:35:03;;;;;;;22.08;11.82;;;22.70;91.50;;;;;;5046043;28;20450;-46
2022/10/31 12:37:34;;;;;;;;;;;22.40;93.40;;;;;;5011607;28;20046;-45
2022/10/31 12:40:16;;;;;;;19.60;12.35;;;22.40;93.40;;;;;;5010160;28;19906;-48
2022/10/31 12:42:52;;;;;;;20.50;11.15;;;22.30;93.60;;;;;;5010943;28;20033;-46
2022/10/31 12:45:53;;;;;;;21.40;12.18;;;22.10;93.70;;;;;;5010992;28;20072;-49
2022/10/31 12:48:21;;;;;;;22.50;12.77;;;21.90;93.90;;;;;;5010473;28;20368;-46
2022/10/31 12:50:57;;;;;;;18.58;11.80;;;21.60;93.50;;;;;;5030047;28;20032;-48
2022/10/31 12:53:48;;;;;;;18.38;11.02;;;21.50;94.10;;;;;;5032770;28;20032;-45